createdAt,value
2023-05-12T00:01:31.151Z,12.24
2023-05-12T00:03:57.859Z,12.67
2023-05-12T00:06:24.597Z,12.55
2023-05-12T00:08:51.081Z,12.27
2023-05-12T00:11:17.763Z,12.68
2023-05-12T00:13:44.430Z,12.24
2023-05-12T00:16:11.200Z,12.90
2023-05-12T00:18:37.830Z,12.81
2023-05-12T00:21:04.768Z,12.40
2023-05-12T00:23:31.285Z,12.27
2023-05-12T00:25:57.808Z,12.27
2023-05-12T00:28:24.408Z,12.23
2023-05-12T00:30:50.924Z,12.29
2023-05-12T00:33:18.597Z,12.38
2023-05-12T00:35:48.049Z,12.41
2023-05-12T00:38:14.572Z,12.88
2023-05-12T00:40:41.406Z,12.12
2023-05-12T00:43:08.709Z,12.09
2023-05-12T00:45:35.456Z,12.17
2023-05-12T00:48:02.370Z,12.17
2023-05-12T00:50:29.005Z,12.01
2023-05-12T00:52:55.585Z,12.09
2023-05-12T00:55:22.116Z,12.01
2023-05-12T00:57:48.681Z,12.03
2023-05-12T01:03:01.811Z,12.18
2023-05-12T01:05:36.136Z,12.07
2023-05-12T01:08:03.553Z,12.17
2023-05-12T01:10:30.053Z,12.29
2023-05-12T01:12:56.578Z,11.95
2023-05-12T01:15:23.322Z,12.07
2023-05-12T01:17:57.093Z,11.98
2023-05-12T01:20:26.443Z,12.07
2023-05-12T01:22:54.688Z,12.28
2023-05-12T01:25:24.050Z,12.22
2023-05-12T01:27:50.788Z,12.07
2023-05-12T01:30:21.796Z,12.02
2023-05-12T01:32:48.941Z,12.00
2023-05-12T01:35:15.566Z,12.18
2023-05-12T01:37:42.158Z,12.03
2023-05-12T01:40:09.204Z,12.13
2023-05-12T01:42:35.786Z,12.34
2023-05-12T01:45:02.311Z,12.08
2023-05-12T01:47:28.937Z,12.73
2023-05-12T01:49:55.453Z,12.35
2023-05-12T01:52:21.988Z,12.20
2023-05-12T01:54:48.602Z,12.02
2023-05-12T01:57:16.341Z,12.01
2023-05-12T01:59:42.927Z,12.10
2023-05-12T02:02:09.584Z,12.30
2023-05-12T02:04:36.331Z,12.18
2023-05-12T02:07:07.803Z,12.64
2023-05-12T02:09:34.387Z,12.42
2023-05-12T02:12:02.192Z,12.72
2023-05-12T02:14:28.724Z,12.20
2023-05-12T02:16:55.677Z,12.17
2023-05-12T02:19:22.348Z,12.37
2023-05-12T02:21:48.937Z,12.19
2023-05-12T02:24:16.648Z,12.32
2023-05-12T02:26:43.321Z,12.36
2023-05-12T02:29:10.963Z,12.31
2023-05-12T02:31:37.626Z,12.36
2023-05-12T02:34:06.488Z,12.36
2023-05-12T02:36:34.497Z,12.40
2023-05-12T02:39:01.164Z,12.83
2023-05-12T02:41:27.707Z,12.89
2023-05-12T02:43:54.308Z,12.93
2023-05-12T02:46:20.902Z,12.32
2023-05-12T02:48:47.490Z,13.19
2023-05-12T02:51:14.069Z,12.86
2023-05-12T02:53:40.634Z,12.28
2023-05-12T02:56:07.676Z,12.56
2023-05-12T02:58:34.761Z,12.89
2023-05-12T03:01:09.912Z,12.40
2023-05-12T03:03:38.284Z,13.57
2023-05-12T03:06:05.520Z,12.75
2023-05-12T03:08:32.115Z,12.32
2023-05-12T03:10:58.820Z,12.39
2023-05-12T03:13:25.327Z,12.43
2023-05-12T03:15:51.840Z,12.51
2023-05-12T03:18:18.503Z,12.27
2023-05-12T03:20:45.145Z,12.57
2023-05-12T03:23:12.055Z,12.69
2023-05-12T03:25:38.627Z,12.54
2023-05-12T03:28:05.916Z,12.33
2023-05-12T03:30:33.269Z,12.25
2023-05-12T03:33:00.029Z,12.47
2023-05-12T03:35:26.973Z,12.81
2023-05-12T03:37:53.615Z,12.68
2023-05-12T03:40:20.517Z,12.54
2023-05-12T03:42:47.304Z,12.79
2023-05-12T03:45:13.965Z,13.06
2023-05-12T03:47:40.955Z,12.73
2023-05-12T03:50:08.273Z,12.40
2023-05-12T03:52:34.935Z,13.04
2023-05-12T03:55:01.481Z,12.87
2023-05-12T03:57:27.995Z,12.45
2023-05-12T03:59:55.069Z,12.83
2023-05-12T04:02:21.717Z,12.60
2023-05-12T04:04:48.263Z,12.35
2023-05-12T04:07:15.270Z,12.60
2023-05-12T04:09:41.805Z,12.88
2023-05-12T04:12:08.349Z,12.29
2023-05-12T04:14:42.130Z,12.41
2023-05-12T04:17:09.544Z,12.44
2023-05-12T04:19:36.119Z,12.74
2023-05-12T04:22:02.608Z,12.54
2023-05-12T04:24:29.116Z,12.92
2023-05-12T04:26:57.603Z,12.85
2023-05-12T04:29:24.107Z,12.54
2023-05-12T04:31:50.856Z,12.36
2023-05-12T04:34:17.465Z,13.34
2023-05-12T04:36:43.955Z,12.55
2023-05-12T04:39:10.463Z,13.46
2023-05-12T04:41:37.041Z,12.69
2023-05-12T04:44:03.683Z,12.85
2023-05-12T04:46:30.286Z,12.86
2023-05-12T04:48:57.069Z,12.35
2023-05-12T04:51:23.625Z,12.78
2023-05-12T04:53:50.143Z,12.84
2023-05-12T04:56:16.953Z,12.69
2023-05-12T04:58:43.703Z,12.45
2023-05-12T05:01:12.314Z,12.48
2023-05-12T05:03:39.961Z,12.68
2023-05-12T05:06:06.817Z,12.54
2023-05-12T05:08:33.476Z,13.57
2023-05-12T05:11:00.077Z,13.51
2023-05-12T05:13:26.607Z,12.75
2023-05-12T05:15:54.573Z,12.53
2023-05-12T05:18:24.007Z,12.61
2023-05-12T05:20:57.951Z,12.93
2023-05-12T05:23:26.061Z,13.14
2023-05-12T05:25:52.753Z,13.17
2023-05-12T05:28:19.332Z,13.05
2023-05-12T05:30:45.983Z,12.67
2023-05-12T05:33:13.354Z,12.69
2023-05-12T05:35:40.340Z,12.59
2023-05-12T05:38:06.927Z,12.73
2023-05-12T05:40:44.985Z,12.80
2023-05-12T05:43:18.631Z,13.22
2023-05-12T05:45:45.211Z,12.83
2023-05-12T05:48:12.263Z,13.29
2023-05-12T05:50:38.918Z,12.83
2023-05-12T05:53:06.158Z,13.12
2023-05-12T05:55:32.682Z,13.05
2023-05-12T05:57:59.513Z,13.12
2023-05-12T06:00:26.054Z,13.50
2023-05-12T06:02:52.797Z,13.36
2023-05-12T06:05:22.293Z,13.68
2023-05-12T06:07:49.022Z,13.63
2023-05-12T06:10:15.786Z,13.69
2023-05-12T06:12:43.245Z,13.54
2023-05-12T06:15:10.456Z,13.49
2023-05-12T06:17:37.064Z,13.37
2023-05-12T06:20:05.314Z,14.45
2023-05-12T06:22:31.933Z,13.99
2023-05-12T06:24:58.480Z,13.49
2023-05-12T06:27:25.068Z,13.66
2023-05-12T06:29:52.051Z,13.48
2023-05-12T06:32:19.255Z,14.14
2023-05-12T06:34:45.810Z,14.13
2023-05-12T06:37:12.409Z,14.38
2023-05-12T06:39:38.963Z,14.16
2023-05-12T06:42:05.763Z,13.83
2023-05-12T06:44:32.253Z,14.21
2023-05-12T06:46:58.996Z,14.77
2023-05-12T06:49:25.583Z,13.71
2023-05-12T06:51:52.088Z,13.89
2023-05-12T06:54:18.610Z,14.16
2023-05-12T06:56:45.155Z,14.44
2023-05-12T06:59:12.625Z,14.28
2023-05-12T07:01:39.203Z,14.66
2023-05-12T07:04:05.947Z,13.88
2023-05-12T07:06:34.502Z,14.21
2023-05-12T07:09:01.113Z,14.24
2023-05-12T07:11:28.245Z,14.37
2023-05-12T07:13:54.863Z,14.05
2023-05-12T07:16:21.534Z,14.46
2023-05-12T07:18:48.452Z,14.06
2023-05-12T07:21:15.699Z,14.05
2023-05-12T07:23:42.923Z,13.96
2023-05-12T07:26:09.773Z,13.85
2023-05-12T07:28:36.708Z,14.55
2023-05-12T07:31:04.304Z,14.10
2023-05-12T07:33:31.559Z,14.82
2023-05-12T07:35:58.245Z,15.30
2023-05-12T07:38:24.787Z,14.06
2023-05-12T07:40:51.471Z,13.87
2023-05-12T07:43:18.075Z,14.14
2023-05-12T07:45:45.482Z,14.94
2023-05-12T07:48:12.391Z,14.77
2023-05-12T07:50:39.441Z,14.83
2023-05-12T07:53:06.228Z,14.54
2023-05-12T07:55:36.280Z,14.18
2023-05-12T07:58:02.817Z,14.73
2023-05-12T08:00:29.343Z,14.81
2023-05-12T08:02:56.172Z,15.29
2023-05-12T08:05:22.768Z,14.44
2023-05-12T08:07:49.344Z,15.09
2023-05-12T08:10:15.995Z,15.38
2023-05-12T08:12:43.060Z,14.31
2023-05-12T08:15:09.921Z,14.62
2023-05-12T08:17:36.614Z,14.74
2023-05-12T08:20:04.513Z,15.82
2023-05-12T08:22:31.558Z,15.42
2023-05-12T08:24:59.672Z,14.53
2023-05-12T08:27:26.340Z,15.37
2023-05-12T08:29:52.918Z,15.80
2023-05-12T08:32:19.533Z,14.86
2023-05-12T08:34:46.207Z,14.77
2023-05-12T08:37:12.761Z,15.24
2023-05-12T08:39:39.401Z,15.15
2023-05-12T08:42:27.274Z,15.69
2023-05-12T08:44:54.376Z,15.27
2023-05-12T08:47:23.006Z,15.66
2023-05-12T08:50:00.856Z,15.84
2023-05-12T08:52:33.030Z,15.45
2023-05-12T08:55:01.070Z,16.14
2023-05-12T08:57:29.679Z,14.99
2023-05-12T08:59:58.909Z,15.90
2023-05-12T09:02:32.740Z,16.04
2023-05-12T09:05:04.725Z,16.03
2023-05-12T09:07:31.455Z,14.98
2023-05-12T09:10:00.604Z,15.39
2023-05-12T09:12:32.184Z,15.98
2023-05-12T09:15:05.316Z,15.23
2023-05-12T09:17:32.102Z,15.51
2023-05-12T09:19:58.658Z,15.64
2023-05-12T09:22:30.116Z,15.38
2023-05-12T09:24:56.764Z,16.08
2023-05-12T09:27:29.146Z,15.91
2023-05-12T09:29:59.605Z,15.52
2023-05-12T09:32:32.076Z,16.02
2023-05-12T09:35:03.927Z,15.99
2023-05-12T09:37:32.479Z,15.92
2023-05-12T09:40:00.781Z,16.24
2023-05-12T09:42:29.830Z,16.17
2023-05-12T09:45:10.015Z,15.81
2023-05-12T09:47:38.405Z,15.75
2023-05-12T09:50:06.620Z,16.45
2023-05-12T09:52:39.899Z,16.06
2023-05-12T09:55:08.743Z,16.13
2023-05-12T09:57:40.869Z,16.42
2023-05-12T10:00:31.335Z,16.79
2023-05-12T10:03:01.496Z,16.55
2023-05-12T10:05:29.419Z,17.01
2023-05-12T10:07:59.054Z,16.58
2023-05-12T10:10:26.598Z,17.37
2023-05-12T10:12:53.304Z,17.18
2023-05-12T10:15:21.237Z,17.43
2023-05-12T10:17:50.925Z,17.14
2023-05-12T10:20:19.156Z,17.45
2023-05-12T10:22:48.936Z,17.09
2023-05-12T10:25:17.925Z,16.98
2023-05-12T10:27:44.922Z,17.43
2023-05-12T10:30:12.446Z,17.59
2023-05-12T10:32:38.997Z,17.43
2023-05-12T10:35:13.164Z,17.24
2023-05-12T10:37:39.774Z,17.08
2023-05-12T10:40:07.145Z,16.99
2023-05-12T10:42:41.761Z,17.35
2023-05-12T10:45:19.938Z,17.57
2023-05-12T10:47:47.803Z,17.75
2023-05-12T10:50:14.626Z,16.89
2023-05-12T10:52:52.536Z,17.54
2023-05-12T10:55:29.855Z,17.96
2023-05-12T10:58:05.189Z,18.38
2023-05-12T11:00:33.060Z,17.80
2023-05-12T11:03:08.140Z,18.21
2023-05-12T11:05:55.780Z,17.89
2023-05-12T11:08:23.396Z,17.75
2023-05-12T11:10:51.302Z,18.23
2023-05-12T11:13:19.262Z,18.62
2023-05-12T11:15:46.760Z,17.89
2023-05-12T11:18:13.519Z,17.50
2023-05-12T11:20:40.244Z,17.17
2023-05-12T11:23:06.904Z,17.68
2023-05-12T11:25:33.892Z,17.37
2023-05-12T11:28:01.553Z,17.69
2023-05-12T11:30:28.356Z,17.78
2023-05-12T11:33:02.280Z,18.29
2023-05-12T11:35:32.544Z,17.98
2023-05-12T11:37:59.139Z,18.47
2023-05-12T11:40:25.702Z,18.12
2023-05-12T11:42:54.046Z,18.51
2023-05-12T11:45:30.687Z,18.98
2023-05-12T11:48:13.956Z,18.76
2023-05-12T11:50:42.451Z,18.53
2023-05-12T11:53:15.127Z,18.62
2023-05-12T11:55:52.997Z,18.29
2023-05-12T11:58:27.259Z,17.71
2023-05-12T12:00:54.280Z,19.26
2023-05-12T12:03:21.431Z,17.88
2023-05-12T12:06:02.861Z,17.94
2023-05-12T12:08:29.962Z,17.58
2023-05-12T12:10:56.628Z,17.57
2023-05-12T12:13:24.837Z,18.10
2023-05-12T12:15:52.268Z,17.55
2023-05-12T12:18:19.270Z,17.68
2023-05-12T12:20:47.259Z,17.70
2023-05-12T12:23:13.786Z,16.94
2023-05-12T12:25:40.288Z,17.46
2023-05-12T12:28:06.852Z,17.36
2023-05-12T12:30:34.014Z,17.94
2023-05-12T12:33:00.794Z,17.90
2023-05-12T12:35:27.418Z,18.44
2023-05-12T12:37:54.055Z,17.86
2023-05-12T12:40:20.574Z,17.96
2023-05-12T12:42:47.434Z,18.53
2023-05-12T12:45:14.049Z,18.57
2023-05-12T12:47:40.729Z,18.66
2023-05-12T12:50:10.652Z,18.44
2023-05-12T12:52:38.540Z,18.74
2023-05-12T12:55:06.888Z,18.69
2023-05-12T12:57:33.505Z,18.03
2023-05-12T13:00:00.127Z,18.40
2023-05-12T13:02:27.165Z,17.58
2023-05-12T13:04:53.850Z,16.92
2023-05-12T13:07:20.890Z,16.85
2023-05-12T13:09:47.739Z,15.55
2023-05-12T13:12:14.788Z,15.00
2023-05-12T13:14:41.309Z,15.00
2023-05-12T13:17:08.394Z,15.22
2023-05-12T13:19:37.811Z,15.13
2023-05-12T13:22:05.013Z,15.21
2023-05-12T13:24:31.672Z,15.04
2023-05-12T13:26:58.291Z,14.96
2023-05-12T13:29:24.806Z,14.89
2023-05-12T13:31:51.396Z,14.54
2023-05-12T13:34:17.997Z,14.80
2023-05-12T13:36:44.563Z,14.59
2023-05-12T13:39:11.458Z,14.43
2023-05-12T13:41:38.070Z,15.08
2023-05-12T13:44:04.643Z,14.73
2023-05-12T13:46:31.373Z,14.68
2023-05-12T13:48:57.920Z,14.85
2023-05-12T13:51:25.793Z,15.10
2023-05-12T13:53:52.794Z,14.46
2023-05-12T13:56:19.379Z,14.31
2023-05-12T13:58:45.989Z,14.14
2023-05-12T14:01:12.884Z,14.53
2023-05-12T14:03:40.350Z,14.71
2023-05-12T14:06:06.959Z,14.84
2023-05-12T14:08:33.565Z,14.20
2023-05-12T14:11:00.173Z,14.32
2023-05-12T14:13:26.768Z,14.61
2023-05-12T14:15:54.262Z,14.81
2023-05-12T14:18:22.031Z,14.84
2023-05-12T14:20:48.683Z,14.81
2023-05-12T14:23:15.252Z,14.71
2023-05-12T14:25:41.856Z,14.38
2023-05-12T14:28:08.787Z,14.65
2023-05-12T14:30:35.480Z,14.57
2023-05-12T14:33:02.933Z,14.52
2023-05-12T14:35:30.146Z,14.71
2023-05-12T14:37:56.950Z,14.74
2023-05-12T14:40:24.110Z,14.69
2023-05-12T14:42:50.827Z,15.06
2023-05-12T14:45:17.747Z,15.17
2023-05-12T14:47:44.736Z,15.97
2023-05-12T14:50:11.602Z,15.90
2023-05-12T14:52:40.725Z,16.37
2023-05-12T14:55:11.888Z,15.63
2023-05-12T14:57:42.427Z,15.45
2023-05-12T15:00:11.012Z,14.73
2023-05-12T15:02:38.223Z,14.36
2023-05-12T15:05:07.205Z,14.22
2023-05-12T15:07:33.846Z,14.00
2023-05-12T15:10:01.046Z,13.88
2023-05-12T15:12:27.751Z,13.78
2023-05-12T15:14:56.137Z,13.79
2023-05-12T15:17:22.882Z,13.90
2023-05-12T15:19:49.667Z,13.90
2023-05-12T15:22:16.209Z,14.02
2023-05-12T15:24:43.184Z,14.06
2023-05-12T15:27:09.736Z,14.15
2023-05-12T15:29:39.776Z,14.43
2023-05-12T15:32:07.519Z,14.45
2023-05-12T15:34:34.945Z,14.70
2023-05-12T15:37:01.468Z,14.75
2023-05-12T15:39:28.108Z,14.52
2023-05-12T15:41:54.700Z,14.75
2023-05-12T15:44:21.270Z,14.61
2023-05-12T15:46:47.877Z,14.61
2023-05-12T15:49:14.590Z,14.68
2023-05-12T15:51:41.153Z,14.59
2023-05-12T15:54:09.515Z,15.11
2023-05-12T15:56:36.683Z,14.77
2023-05-12T15:59:05.223Z,14.73
2023-05-12T16:01:31.958Z,15.84
2023-05-12T16:03:58.751Z,15.96
2023-05-12T16:06:25.676Z,15.96
2023-05-12T16:08:53.327Z,15.40
2023-05-12T16:11:20.056Z,16.51
2023-05-12T16:13:46.680Z,16.37
2023-05-12T16:16:13.587Z,15.21
2023-05-12T16:18:40.317Z,15.38
2023-05-12T16:21:08.338Z,15.84
2023-05-12T16:23:35.044Z,15.62
2023-05-12T16:26:01.580Z,15.44
2023-05-12T16:28:28.173Z,15.70
2023-05-12T16:30:54.830Z,16.37
2023-05-12T16:33:21.535Z,18.55
2023-05-12T16:35:48.128Z,17.50
2023-05-12T16:38:14.792Z,17.07
2023-05-12T16:40:41.476Z,16.99
2023-05-12T16:43:07.988Z,19.23
2023-05-12T16:45:34.574Z,17.81
2023-05-12T16:48:01.151Z,18.85
2023-05-12T16:50:27.782Z,17.27
2023-05-12T16:52:54.332Z,18.16
2023-05-12T16:55:21.463Z,16.56
2023-05-12T16:57:48.191Z,17.10
2023-05-12T17:00:16.632Z,17.46
2023-05-12T17:02:43.195Z,17.59
2023-05-12T17:05:09.993Z,16.41
2023-05-12T17:07:36.630Z,15.37
2023-05-12T17:10:03.536Z,15.67
2023-05-12T17:12:30.071Z,15.57
2023-05-12T17:15:06.737Z,15.88
2023-05-12T17:17:37.801Z,15.62
2023-05-12T17:20:04.738Z,15.91
2023-05-12T17:22:32.512Z,15.39
2023-05-12T17:24:59.048Z,15.84
2023-05-12T17:27:25.842Z,15.33
2023-05-12T17:29:52.395Z,15.36
2023-05-12T17:32:18.928Z,15.89
2023-05-12T17:34:49.286Z,15.60
2023-05-12T17:37:15.844Z,16.43
2023-05-12T17:39:44.388Z,17.21
2023-05-12T17:42:11.190Z,16.43
2023-05-12T17:44:37.764Z,15.89
2023-05-12T17:47:05.021Z,15.37
2023-05-12T17:49:32.141Z,15.32
2023-05-12T17:51:58.695Z,15.59
2023-05-12T17:54:25.283Z,15.64
2023-05-12T17:56:51.847Z,15.24
2023-05-12T17:59:18.350Z,15.37
2023-05-12T18:01:44.885Z,15.09
2023-05-12T18:04:11.625Z,15.21
2023-05-12T18:06:38.740Z,15.01
2023-05-12T18:09:05.444Z,14.41
2023-05-12T18:11:34.293Z,14.31
2023-05-12T18:14:05.768Z,14.79
2023-05-12T18:16:33.432Z,14.82
2023-05-12T18:19:00.711Z,14.74
2023-05-12T18:21:27.405Z,15.17
2023-05-12T18:23:54.379Z,14.19
2023-05-12T18:26:21.155Z,14.05
2023-05-12T18:28:47.850Z,14.06
2023-05-12T18:31:16.484Z,14.22
2023-05-12T18:33:46.625Z,13.98
2023-05-12T18:36:13.301Z,14.13
2023-05-12T18:38:40.128Z,13.79
2023-05-12T18:41:07.292Z,14.01
2023-05-12T18:43:34.990Z,14.26
2023-05-12T18:46:02.064Z,14.38
2023-05-12T18:48:28.586Z,14.30
2023-05-12T18:50:56.262Z,14.97
2023-05-12T18:53:23.101Z,14.20
2023-05-12T18:55:50.317Z,14.50
2023-05-12T18:58:17.089Z,14.56
2023-05-12T19:00:44.985Z,14.24
2023-05-12T19:03:11.580Z,14.11
2023-05-12T19:05:42.132Z,14.17
2023-05-12T19:08:08.725Z,14.02
2023-05-12T19:10:37.248Z,13.96
2023-05-12T19:13:05.316Z,13.81
2023-05-12T19:15:31.905Z,14.06
2023-05-12T19:17:58.474Z,13.96
2023-05-12T19:20:25.109Z,13.82
2023-05-12T19:22:51.666Z,13.82
2023-05-12T19:25:18.575Z,13.81
2023-05-12T19:27:45.841Z,14.02
2023-05-12T19:30:14.033Z,13.91
2023-05-12T19:32:42.463Z,13.72
2023-05-12T19:35:12.564Z,13.77
2023-05-12T19:37:39.523Z,14.03
2023-05-12T19:40:06.771Z,13.94
2023-05-12T19:42:34.627Z,13.95
2023-05-12T19:45:01.267Z,14.03
2023-05-12T19:47:30.034Z,13.97
2023-05-12T19:49:57.048Z,14.02
2023-05-12T19:52:24.777Z,14.07
2023-05-12T19:54:52.006Z,14.34
2023-05-12T19:57:21.377Z,14.19
2023-05-12T19:59:49.709Z,14.46
2023-05-12T20:02:17.279Z,14.25
2023-05-12T20:04:44.572Z,14.32
2023-05-12T20:07:11.162Z,14.19
2023-05-12T20:09:37.875Z,14.21
2023-05-12T20:12:07.952Z,14.26
2023-05-12T20:14:35.657Z,14.02
2023-05-12T20:17:05.801Z,14.01
2023-05-12T20:19:33.654Z,13.98
2023-05-12T20:22:00.259Z,13.84
2023-05-12T20:24:27.127Z,13.96
2023-05-12T20:26:54.086Z,13.75
2023-05-12T20:29:21.048Z,13.82
2023-05-12T20:31:48.854Z,13.81
2023-05-12T20:34:15.717Z,13.82
2023-05-12T20:36:44.230Z,13.87
2023-05-12T20:39:11.558Z,13.73
2023-05-12T20:41:43.414Z,13.77
2023-05-12T20:44:10.243Z,14.07
2023-05-12T20:46:38.364Z,14.13
2023-05-12T20:49:05.997Z,14.20
2023-05-12T20:51:32.642Z,13.92
2023-05-12T20:53:59.444Z,13.82
2023-05-12T20:56:26.988Z,13.79
2023-05-12T20:58:53.867Z,13.60
2023-05-12T21:01:20.586Z,13.60
2023-05-12T21:03:47.385Z,13.72
2023-05-12T21:06:13.936Z,14.03
2023-05-12T21:08:40.471Z,13.78
2023-05-12T21:11:14.858Z,13.74
2023-05-12T21:13:41.626Z,13.82
2023-05-12T21:16:08.289Z,13.89
2023-05-12T21:18:35.120Z,13.85
2023-05-12T21:21:01.800Z,14.25
2023-05-12T21:23:30.167Z,14.17
2023-05-12T21:25:56.729Z,14.34
2023-05-12T21:28:23.356Z,14.92
2023-05-12T21:30:50.044Z,14.37
2023-05-12T21:33:16.576Z,14.20
2023-05-12T21:35:43.083Z,14.04
2023-05-12T21:38:10.139Z,13.85
2023-05-12T21:40:37.925Z,13.94
2023-05-12T21:43:04.557Z,14.01
2023-05-12T21:45:31.322Z,14.13
2023-05-12T21:47:57.884Z,14.02
2023-05-12T21:50:24.458Z,14.08
2023-05-12T21:52:51.124Z,13.82
2023-05-12T21:55:17.763Z,13.81
2023-05-12T21:57:44.303Z,13.74
2023-05-12T22:00:12.785Z,14.24
2023-05-12T22:02:39.430Z,13.91
2023-05-12T22:05:06.573Z,13.84
2023-05-12T22:07:33.434Z,14.48
2023-05-12T22:10:00.381Z,14.58
2023-05-12T22:12:27.042Z,13.92
2023-05-12T22:14:54.241Z,13.85
2023-05-12T22:17:20.998Z,13.89
2023-05-12T22:19:47.615Z,14.04
2023-05-12T22:22:14.239Z,13.67
2023-05-12T22:24:40.770Z,13.82
2023-05-12T22:27:07.468Z,13.80
2023-05-12T22:29:34.165Z,13.67
2023-05-12T22:32:00.941Z,13.62
2023-05-12T22:34:27.548Z,13.60
2023-05-12T22:36:54.147Z,13.69
2023-05-12T22:39:20.658Z,13.70
2023-05-12T22:41:47.152Z,13.64
2023-05-12T22:44:13.755Z,13.75
2023-05-12T22:46:40.572Z,13.60
2023-05-12T22:49:07.238Z,13.70
2023-05-12T22:51:34.347Z,13.66
2023-05-12T22:54:00.913Z,13.73
2023-05-12T22:56:27.472Z,13.69
2023-05-12T22:58:54.135Z,13.66
2023-05-12T23:01:20.725Z,13.65
2023-05-12T23:03:47.381Z,13.59
2023-05-12T23:06:14.001Z,13.51
2023-05-12T23:08:40.509Z,13.56
2023-05-12T23:11:07.064Z,13.68
2023-05-12T23:13:33.646Z,13.70
2023-05-12T23:16:00.283Z,13.89
2023-05-12T23:18:26.799Z,13.89
2023-05-12T23:20:53.464Z,13.94
2023-05-12T23:23:20.010Z,13.80
2023-05-12T23:25:47.078Z,13.79
2023-05-12T23:28:13.665Z,13.77
2023-05-12T23:30:40.256Z,13.81
2023-05-12T23:33:06.959Z,13.65
2023-05-12T23:35:33.594Z,13.78
2023-05-12T23:38:00.099Z,13.68
2023-05-12T23:40:26.616Z,13.77
2023-05-12T23:42:53.257Z,13.71
2023-05-12T23:45:19.886Z,13.75
2023-05-12T23:47:46.598Z,13.89
2023-05-12T23:50:13.148Z,13.81
2023-05-12T23:52:39.765Z,14.15
2023-05-12T23:55:06.834Z,13.96
2023-05-12T23:57:33.338Z,14.13
2023-05-12T23:59:59.900Z,14.19
